Hillsdale, Michigan
Current Conditions -  °F | °C
As of 6:14 PM on Thursday 20 Nov 2014 (Local Time) from KJYM Reporting Station
Light Snow Light Snow  
Wind Chill: -11°   Ceiling: 3000
Heat Index: -6°   Visibility: 2.5mi
Dew Point: -8°   Wind: 7mph
Humidity: 87%   Direction: 290°WNW
Pressure: 30.03"   Gusts: NA
Location:  41.92°N, 84.63°W
Report Text: KJYM 202314Z AUTO 29006KT 2 1/2SM -SN SCT020 BKN030 OVC047 M06/M08 A3003 RMK AO2 T10621080
Loading
Personal Weather Stations






























Interactive Weather Map New forecast layout! Learn more

10-Day Weather Forecast

Advertisements
Track Severe Weather on mobile